Time;durP1;ratioP1;P1;durP2;ratioP2;P2;SDS_P1;SDS_P2;PMS_P1;PMS_P2;Temp;Humidity;BMP_temperature;BMP_pressure;BME280_temperature;BME280_humidity;BME280_pressure;Samples;Min_cycle;Max_cycle;Signal;HPM_P1;HPM_P2
2023/07/24 00:00:31;;;;;;;;;;;;;;;22.10;54.64;100404.88;4845776;28;118726;-74
2023/07/24 00:02:58;;;;;;;;;;;;;;;22.11;54.67;100395.78;4853896;28;119259;-75
2023/07/24 00:05:25;;;;;;;;;;;;;;;22.11;54.63;100395.78;4855951;28;124762;-75
2023/07/24 00:07:52;;;;;;;;;;;;;;;22.12;54.64;100398.31;4853152;29;124398;-75
2023/07/24 00:10:19;;;;;;;;;;;;;;;22.14;54.68;100392.78;4853561;29;120664;-75
2023/07/24 00:12:46;;;;;;;;;;;;;;;22.16;54.72;100388.09;4852791;28;118695;-75
2023/07/24 00:15:13;;;;;;;;;;;;;;;22.16;54.60;100388.91;4855025;28;123486;-75
2023/07/24 00:17:40;;;;;;;;;;;;;;;22.17;54.72;100395.19;4855121;28;123365;-75
2023/07/24 00:20:08;;;;;;;;;;;;;;;22.18;54.67;100396.84;4848329;28;119595;-75
2023/07/24 00:22:34;;;;;;;;;;;;;;;22.17;54.72;100384.41;4852878;28;119657;-75
2023/07/24 00:25:02;;;;;;;;;;;;;;;22.17;54.67;100389.78;4852459;28;124454;-75
2023/07/24 00:27:28;;;;;;;;;;;;;;;22.18;54.64;100375.28;4845814;29;124146;-75
2023/07/24 00:29:55;;;;;;;;;;;;;;;22.16;54.65;100377.28;4851071;29;119936;-75
2023/07/24 00:32:23;;;;;;;;;;;;;;;22.15;54.55;100375.59;4854648;28;119453;-75
2023/07/24 00:34:49;;;;;;;;;;;;;;;22.15;54.72;100370.19;4849943;29;124656;-75
2023/07/24 00:37:16;;;;;;;;;;;;;;;22.15;54.69;100364.78;4845669;29;122808;-75
2023/07/24 00:39:43;;;;;;;;;;;;;;;22.15;54.78;100364.78;4851011;28;119713;-75
2023/07/24 00:42:10;;;;;;;;;;;;;;;22.16;54.81;100361.09;4851487;28;117835;-75
2023/07/24 00:44:37;;;;;;;;;;;;;;;22.16;54.83;100361.09;4853298;28;124515;-75
2023/07/24 00:47:04;;;;;;;;;;;;;;;22.16;54.71;100366.50;4854782;29;122999;-75
2023/07/24 00:49:32;;;;;;;;;;;;;;;22.14;54.79;100357.72;4855703;28;119683;-75
2023/07/24 00:51:59;;;;;;;;;;;;;;;22.13;54.80;100361.41;4856307;28;118687;-75
2023/07/24 00:54:30;;;;;;;;;;;;;;;22.12;54.81;100354.34;4842231;28;123925;-75
2023/07/24 00:56:57;;;;;;;;;;;;;;;22.11;54.89;100347.22;4849806;28;123270;-75
2023/07/24 00:59:24;;;;;;;;;;;;;;;22.12;54.80;100343.53;4848426;28;120290;-75
2023/07/24 01:01:51;;;;;;;;;;;;;;;22.11;54.79;100336.44;4853580;28;118681;-76
2023/07/24 01:04:19;;;;;;;;;;;;;;;22.10;54.84;100334.75;4847675;28;124182;-75
2023/07/24 01:06:46;;;;;;;;;;;;;;;22.10;54.79;100334.75;4849575;28;123950;-75
2023/07/24 01:09:13;;;;;;;;;;;;;;;22.10;54.81;100334.75;4850809;29;119673;-75
2023/07/24 01:12:01;;;;;;;;;;;;;;;22.09;54.96;100333.06;4848881;28;118392;-75
2023/07/24 01:14:36;;;;;;;;;;;;;;;22.09;54.88;100327.66;4843495;28;125666;-75
2023/07/24 01:17:07;;;;;;;;;;;;;;;22.07;54.82;100329.69;4845544;28;124383;-75
2023/07/24 01:19:40;;;;;;;;;;;;;;;22.06;54.83;100322.59;4844297;29;120656;-76
2023/07/24 01:22:10;;;;;;;;;;;;;;;22.03;54.98;100318.34;4854077;28;118861;-75
2023/07/24 01:25:04;;;;;;;;;;;;;;;22.03;55.01;100317.50;4853607;28;123349;-75
2023/07/24 01:27:31;;;;;;;;;;;;;;;22.02;54.92;100311.28;4842828;28;124910;-75
2023/07/24 01:29:58;;;;;;;;;;;;;;;22.03;55.02;100317.50;4846659;28;118800;-75
2023/07/24 01:32:25;;;;;;;;;;;;;;;22.03;55.04;100317.50;4854439;28;117996;-75
2023/07/24 01:34:52;;;;;;;;;;;;;;;22.05;55.03;100307.41;4848887;28;124463;-75
2023/07/24 01:37:21;;;;;;;;;;;;;;;22.04;55.07;100297.63;4845331;28;123945;-75
2023/07/24 01:39:48;;;;;;;;;;;;;;;22.05;55.06;100299.31;4853883;28;120448;-75
2023/07/24 01:42:15;;;;;;;;;;;;;;;22.06;55.03;100295.63;4852786;29;118059;-75
2023/07/24 01:44:42;;;;;;;;;;;;;;;22.05;55.10;100277.75;4851677;29;124239;-75
2023/07/24 01:47:10;;;;;;;;;;;;;;;22.05;55.07;100293.94;4851524;29;125373;-75
2023/07/24 01:49:37;;;;;;;;;;;;;;;22.04;55.07;100290.38;4844965;29;119927;-75
2023/07/24 01:52:06;;;;;;;;;;;;;;;22.05;55.12;100277.75;4848293;29;97542;-75
2023/07/24 01:54:33;;;;;;;;;;;;;;;22.05;55.11;100275.88;4838228;28;123349;-76
2023/07/24 01:57:00;;;;;;;;;;;;;;;22.05;55.19;100278.59;4853720;29;124297;-75
2023/07/24 01:59:27;;;;;;;;;;;;;;;22.05;55.07;100280.44;4853141;28;118564;-75
2023/07/24 02:01:54;;;;;;;;;;;;;;;22.05;55.14;100275.03;4854028;28;118016;-75
2023/07/24 02:04:22;;;;;;;;;;;;;;;22.06;55.13;100274.06;4863667;28;123619;-75
2023/07/24 02:06:49;;;;;;;;;;;;;;;22.06;55.21;100268.66;4853814;28;123181;-75
2023/07/24 02:09:19;;;;;;;;;;;;;;;22.05;55.22;100273.19;4846067;28;120873;-75
2023/07/24 02:11:46;;;;;;;;;;;;;;;22.06;55.24;100263.28;4865422;28;120143;-75
2023/07/24 02:14:16;;;;;;;;;;;;;;;22.06;55.19;100263.28;4853148;28;124360;-76
2023/07/24 02:16:43;;;;;;;;;;;;;;;22.06;55.37;100271.38;4853264;29;124337;-76
2023/07/24 02:19:10;;;;;;;;;;;;;;;22.05;55.44;100269.66;4854015;29;119113;-76
2023/07/24 02:21:37;;;;;;;;;;;;;;;22.04;55.24;100260.72;4854291;28;119672;-75
2023/07/24 02:24:04;;;;;;;;;;;;;;;22.04;55.25;100255.34;4852673;28;124689;-75
2023/07/24 02:26:31;;;;;;;;;;;;;;;22.03;55.43;100263.56;4831489;29;123969;-75
2023/07/24 02:28:58;;;;;;;;;;;;;;;22.04;55.32;100249.06;4839892;28;119996;-75
2023/07/24 02:31:25;;;;;;;;;;;;;;;22.05;55.37;100240.00;4854272;28;117648;-76
2023/07/24 02:33:53;;;;;;;;;;;;;;;22.06;55.39;100241.69;4853239;28;123389;-76
2023/07/24 02:36:21;;;;;;;;;;;;;;;22.05;55.31;100240.00;4843994;29;124031;-76
2023/07/24 02:38:48;;;;;;;;;;;;;;;22.04;55.33;100232.88;4843850;28;118932;-76
2023/07/24 02:41:16;;;;;;;;;;;;;;;22.03;55.43;100236.59;4841190;28;118625;-76
2023/07/24 02:43:42;;;;;;;;;;;;;;;22.04;55.52;100238.28;4848575;28;124198;-76
2023/07/24 02:46:11;;;;;;;;;;;;;;;22.03;55.46;100237.44;4842299;29;124298;-77
2023/07/24 02:48:38;;;;;;;;;;;;;;;22.06;55.46;100247.09;4852017;29;120134;-77
2023/07/24 02:51:05;;;;;;;;;;;;;;;22.05;55.48;100248.91;4852708;29;118877;-77
2023/07/24 02:53:32;;;;;;;;;;;;;;;22.05;55.48;100250.78;4851377;28;125493;-77
2023/07/24 02:56:00;;;;;;;;;;;;;;;22.04;55.53;100254.47;4848560;29;125001;-77
2023/07/24 02:58:27;;;;;;;;;;;;;;;22.05;55.44;100245.38;4847700;28;120603;-77
2023/07/24 03:01:01;;;;;;;;;;;;;;;22.06;55.62;100247.09;4852826;29;120029;-76
2023/07/24 03:03:28;;;;;;;;;;;;;;;22.08;55.64;100245.06;4854012;28;123611;-77
2023/07/24 03:05:56;;;;;;;;;;;;;;;22.09;55.49;100241.34;4851992;28;125431;-77
2023/07/24 03:08:22;;;;;;;;;;;;;;;22.11;55.46;100233.94;4850350;29;118566;-77
2023/07/24 03:10:49;;;;;;;;;;;;;;;22.12;55.62;100235.66;4846781;28;117943;-77
2023/07/24 03:13:17;;;;;;;;;;;;;;;22.12;55.52;100224.88;4843052;29;124395;-77
2023/07/24 03:15:51;;;;;;;;;;;;;;;22.14;55.55;100239.03;4853471;29;123630;-76
2023/07/24 03:18:18;;;;;;;;;;;;;;;22.13;55.56;100245.44;4850904;29;120064;-77
2023/07/24 03:20:46;;;;;;;;;;;;;;;22.13;55.47;100250.81;4851875;28;118251;-77
2023/07/24 03:23:13;;;;;;;;;;;;;;;22.09;55.42;100246.75;4856903;28;124075;-77
2023/07/24 03:25:40;;;;;;;;;;;;;;;22.06;55.61;100242.53;4856297;28;124291;-76
2023/07/24 03:28:07;;;;;;;;;;;;;;;22.03;55.59;100233.91;4850785;28;118570;-76
2023/07/24 03:30:34;;;;;;;;;;;;;;;22.01;55.62;100233.22;4858156;28;117404;-75
2023/07/24 03:33:02;;;;;;;;;;;;;;;21.97;55.54;100228.13;4859837;29;123581;-76
2023/07/24 03:35:30;;;;;;;;;;;;;;;21.95;55.62;100235.53;4857930;28;123220;-75
2023/07/24 03:37:59;;;;;;;;;;;;;;;21.94;55.72;100217.69;4870338;28;120498;-75
2023/07/24 03:40:26;;;;;;;;;;;;;;;21.92;55.61;100198.09;4851429;28;118188;-75
2023/07/24 03:42:53;;;;;;;;;;;;;;;21.91;55.58;100201.81;4858065;28;124525;-75
2023/07/24 03:45:22;;;;;;;;;;;;;;;21.91;55.71;100212.59;4856932;28;123868;-75
2023/07/24 03:47:49;;;;;;;;;;;;;;;21.91;55.72;100218.00;4851692;28;120654;-75
2023/07/24 03:50:16;;;;;;;;;;;;;;;21.90;55.77;100216.28;4851059;28;120102;-76
2023/07/24 03:52:43;;;;;;;;;;;;;;;21.90;55.79;100215.44;4853361;29;124649;-76
2023/07/24 03:55:11;;;;;;;;;;;;;;;21.89;55.72;100214.63;4848366;28;124093;-75
2023/07/24 03:57:38;;;;;;;;;;;;;;;21.89;55.72;100206.53;4848981;28;119731;-76
2023/07/24 04:00:05;;;;;;;;;;;;;;;21.87;55.77;100199.56;4850608;28;118973;-76
2023/07/24 04:02:39;;;;;;;;;;;;;;;21.84;55.77;100211.53;4851835;28;125124;-76
2023/07/24 04:05:07;;;;;;;;;;;;;;;21.83;55.70;100212.56;4851073;28;124183;-76
2023/07/24 04:07:34;;;;;;;;;;;;;;;21.81;55.85;100217.22;4852285;28;119409;-76
2023/07/24 04:10:01;;;;;;;;;;;;;;;21.82;55.75;100218.94;4842115;29;118935;-78
2023/07/24 04:12:28;;;;;;;;;;;;;;;21.82;55.60;100218.94;4853228;28;124189;-77
2023/07/24 04:14:56;;;;;;;;;;;;;;;21.76;55.71;100208.78;4844244;28;124864;-77
2023/07/24 04:17:23;;;;;;;;;;;;;;;21.70;55.63;100209.41;4861798;28;118288;-77
2023/07/24 04:19:51;;;;;;;;;;;;;;;21.65;55.64;100222.53;4843229;28;119447;-77
2023/07/24 04:22:18;;;;;;;;;;;;;;;21.58;55.58;100223.13;4848624;29;124267;-77
2023/07/24 04:24:47;;;;;;;;;;;;;;;21.52;55.65;100229.16;4854991;28;125127;-79
2023/07/24 04:27:14;;;;;;;;;;;;;;;21.47;55.71;100231.44;4865160;28;119675;-77
2023/07/24 04:29:41;;;;;;;;;;;;;;;21.42;55.80;100228.38;4845819;29;118892;-77
2023/07/24 04:32:08;;;;;;;;;;;;;;;21.40;55.90;100233.06;4855109;28;124216;-77
2023/07/24 04:34:35;;;;;;;;;;;;;;;21.38;55.84;100240.44;4853596;29;124173;-77
2023/07/24 04:37:03;;;;;;;;;;;;;;;21.36;55.84;100250.50;4851414;28;119599;-77
2023/07/24 04:39:31;;;;;;;;;;;;;;;21.33;55.87;100250.84;4847634;29;120518;-77
2023/07/24 04:41:59;;;;;;;;;;;;;;;21.30;55.91;100245.75;4840180;29;124200;-75
2023/07/24 04:44:26;;;;;;;;;;;;;;;21.26;55.96;100236.28;4850467;28;123782;-74
2023/07/24 04:46:55;;;;;;;;;;;;;;;21.24;55.92;100235.59;4850238;29;119749;-74
2023/07/24 04:49:22;;;;;;;;;;;;;;;21.22;56.00;100226.81;4853668;29;118337;-75
2023/07/24 04:51:50;;;;;;;;;;;;;;;21.19;56.03;100228.81;4855348;28;124196;-75
2023/07/24 04:54:17;;;;;;;;;;;;;;;21.17;56.01;100225.44;4851828;29;123804;-75
2023/07/24 04:56:45;;;;;;;;;;;;;;;21.15;55.97;100230.13;4853834;28;119490;-74
2023/07/24 04:59:12;;;;;;;;;;;;;;;21.13;56.06;100234.78;4851028;28;119166;-74
2023/07/24 05:01:39;;;;;;;;;;;;;;;21.10;56.00;100240.50;4854175;29;124835;-74
2023/07/24 05:04:06;;;;;;;;;;;;;;;21.08;56.02;100242.50;4854918;29;123314;-74
2023/07/24 05:06:35;;;;;;;;;;;;;;;21.04;56.11;100235.75;4848691;29;118843;-74
2023/07/24 05:09:02;;;;;;;;;;;;;;;21.03;56.13;100242.09;4850004;28;119282;-73
2023/07/24 05:11:29;;;;;;;;;;;;;;;21.00;55.96;100228.94;4853777;29;124323;-73
2023/07/24 05:13:56;;;;;;;;;;;;;;;21.00;56.15;100234.31;4852553;28;124055;-73
2023/07/24 05:16:23;;;;;;;;;;;;;;;20.98;56.24;100225.56;4853289;28;119873;-74
2023/07/24 05:18:50;;;;;;;;;;;;;;;20.97;56.17;100229.25;4851609;28;118955;-74
2023/07/24 05:21:17;;;;;;;;;;;;;;;20.97;56.23;100232.78;4849626;28;124501;-74
2023/07/24 05:23:44;;;;;;;;;;;;;;;20.97;56.16;100234.66;4848885;29;124130;-74
2023/07/24 05:26:11;;;;;;;;;;;;;;;20.97;56.25;100250.78;4852292;28;120712;-73
2023/07/24 05:28:38;;;;;;;;;;;;;;;20.95;56.30;100248.25;4849957;29;118622;-74
2023/07/24 05:31:05;;;;;;;;;;;;;;;20.96;56.18;100249.09;4851906;28;124553;-74
2023/07/24 05:33:32;;;;;;;;;;;;;;;20.96;56.30;100254.47;4857379;28;124539;-73
2023/07/24 05:36:00;;;;;;;;;;;;;;;20.96;56.31;100254.47;4849162;29;119251;-74
2023/07/24 05:38:27;;;;;;;;;;;;;;;20.97;56.25;100261.56;4854552;28;118706;-74
2023/07/24 05:40:55;;;;;;;;;;;;;;;20.98;56.36;100260.56;4849531;28;124737;-74
2023/07/24 05:43:22;;;;;;;;;;;;;;;20.97;56.36;100253.50;4852457;29;122769;-74
2023/07/24 05:45:50;;;;;;;;;;;;;;;20.99;56.41;100264.94;4841888;29;119908;-74
2023/07/24 05:48:17;;;;;;;;;;;;;;;21.00;56.38;100266.63;4843370;28;118786;-74
2023/07/24 05:50:44;;;;;;;;;;;;;;;20.99;56.34;100260.41;4845806;29;124094;-73
2023/07/24 05:53:11;;;;;;;;;;;;;;;21.01;56.33;100262.97;4848805;29;124358;-74
2023/07/24 05:55:38;;;;;;;;;;;;;;;21.02;56.47;100261.97;4842457;29;119194;-74
2023/07/24 05:58:05;;;;;;;;;;;;;;;21.04;56.47;100262.66;4842318;29;119203;-74
2023/07/24 06:00:33;;;;;;;;;;;;;;;21.07;56.45;100259.66;4847766;29;124688;-74
2023/07/24 06:03:00;;;;;;;;;;;;;;;21.08;56.48;100264.06;4850612;29;123991;-74
2023/07/24 06:05:27;;;;;;;;;;;;;;;21.09;56.36;100260.34;4846232;29;120025;-73
2023/07/24 06:07:54;;;;;;;;;;;;;;;21.10;56.39;100264.75;4846485;28;118194;-74
2023/07/24 06:10:21;;;;;;;;;;;;;;;21.13;56.51;100267.13;4844821;28;124098;-73
2023/07/24 06:12:48;;;;;;;;;;;;;;;21.14;56.44;100263.44;4845867;29;124579;-73
2023/07/24 06:15:15;;;;;;;;;;;;;;;21.16;56.45;100265.97;4851804;29;119554;-74
2023/07/24 06:17:42;;;;;;;;;;;;;;;21.18;56.40;100270.22;4836737;29;120611;-74
2023/07/24 06:20:09;;;;;;;;;;;;;;;21.19;56.39;100266.53;4847886;29;125834;-74
2023/07/24 06:22:36;;;;;;;;;;;;;;;21.20;56.46;100268.19;4849305;29;124890;-74
2023/07/24 06:25:03;;;;;;;;;;;;;;;21.24;56.55;100268.75;4845557;29;119740;-74
2023/07/24 06:27:30;;;;;;;;;;;;;;;21.24;56.42;100267.91;4845578;28;118700;-75
2023/07/24 06:29:57;;;;;;;;;;;;;;;21.27;56.42;100275.69;4851824;28;125144;-75
2023/07/24 06:32:39;;;;;;;;;;;;;;;21.28;56.49;100269.28;4846412;28;123965;-75
2023/07/24 06:35:06;;;;;;;;;;;;;;;21.30;56.59;100267.28;4846746;28;118905;-75
2023/07/24 06:37:33;;;;;;;;;;;;;;;21.34;56.60;100268.69;4847751;28;118894;-75
2023/07/24 06:40:00;;;;;;;;;;;;;;;21.37;56.56;100273.75;4841977;28;124356;-75
2023/07/24 06:42:27;;;;;;;;;;;;;;;21.40;56.60;100262.69;4857044;28;122806;-74
2023/07/24 06:44:55;;;;;;;;;;;;;;;21.42;56.63;100265.22;4851962;29;119246;-75
2023/07/24 06:47:22;;;;;;;;;;;;;;;21.45;56.83;100268.47;4849245;29;118951;-75
2023/07/24 06:49:49;;;;;;;;;;;;;;;21.46;56.61;100270.19;4843478;29;124003;-75
2023/07/24 06:52:16;;;;;;;;;;;;;;;21.51;56.69;100273.28;4844474;29;124123;-75
2023/07/24 06:54:44;;;;;;;;;;;;;;;21.53;56.68;100276.66;4848248;28;119698;-75
2023/07/24 06:57:11;;;;;;;;;;;;;;;21.58;56.65;100274.31;4842996;29;119310;-75
2023/07/24 06:59:40;;;;;;;;;;;;;;;21.60;56.66;100268.78;4846056;28;124426;-75
2023/07/24 07:02:07;;;;;;;;;;;;;;;21.68;56.71;100276.09;4848584;29;124916;-75
2023/07/24 07:04:34;;;;;;;;;;;;;;;21.73;56.71;100284.56;4842760;28;120218;-75
2023/07/24 07:07:01;;;;;;;;;;;;;;;21.80;56.78;100279.41;4848290;29;119708;-75
2023/07/24 07:09:28;;;;;;;;;;;;;;;21.85;56.74;100277.94;4849441;28;125122;-77
2023/07/24 07:11:55;;;;;;;;;;;;;;;21.91;56.75;100277.31;4846610;29;124105;-75
2023/07/24 07:14:22;;;;;;;;;;;;;;;21.93;56.61;100278.00;4853411;28;120072;-75
2023/07/24 07:16:49;;;;;;;;;;;;;;;21.97;56.74;100275.84;4853932;29;119447;-75
2023/07/24 07:19:16;;;;;;;;;;;;;;;21.99;56.54;100267.59;4847427;28;124483;-75
2023/07/24 07:21:43;;;;;;;;;;;;;;;21.97;56.49;100271.28;4845330;28;124606;-75
2023/07/24 07:24:10;;;;;;;;;;;;;;;21.96;56.55;100275.00;4850017;29;119712;-77
2023/07/24 07:26:37;;;;;;;;;;;;;;;21.95;56.45;100281.38;4850244;29;118988;-75
2023/07/24 07:29:04;;;;;;;;;;;;;;;21.93;56.47;100280.69;4850798;28;124377;-75
2023/07/24 07:31:31;;;;;;;;;;;;;;;21.92;56.57;100279.00;4841165;29;124817;-75
2023/07/24 07:33:58;;;;;;;;;;;;;;;21.93;56.59;100275.31;4852389;29;118442;-75
2023/07/24 07:36:25;;;;;;;;;;;;;;;21.94;56.69;100278.84;4850871;28;117899;-75
2023/07/24 07:38:53;;;;;;;;;;;;;;;21.95;56.65;100276.00;4853296;28;125185;-76
2023/07/24 07:41:20;;;;;;;;;;;;;;;21.96;56.57;100275.00;4850021;28;123088;-75
2023/07/24 07:43:47;;;;;;;;;;;;;;;21.97;56.77;100284.78;4853285;29;119750;-75
2023/07/24 07:46:14;;;;;;;;;;;;;;;22.01;56.71;100287.16;4851311;29;118476;-75
2023/07/24 07:48:41;;;;;;;;;;;;;;;22.03;56.53;100268.97;4846181;29;124212;-75
2023/07/24 07:51:08;;;;;;;;;;;;;;;22.01;56.55;100265.59;4849850;29;124188;-75
2023/07/24 07:53:35;;;;;;;;;;;;;;;22.00;56.56;100264.75;4850353;28;120652;-77
2023/07/24 07:56:02;;;;;;;;;;;;;;;22.03;56.74;100266.28;4851876;29;119541;-76
2023/07/24 07:58:30;;;;;;;;;;;;;;;22.06;56.68;100263.28;4853868;28;123913;-75
2023/07/24 08:00:57;;;;;;;;;;;;;;;22.09;56.74;100262.94;4846116;29;123850;-75
2023/07/24 08:03:24;;;;;;;;;;;;;;;22.12;56.64;100268.03;4844372;28;118879;-76
2023/07/24 08:05:51;;;;;;;;;;;;;;;22.12;56.54;100268.03;4852267;29;119554;-76
2023/07/24 08:08:18;;;;;;;;;;;;;;;22.12;56.56;100262.63;4853917;29;124423;-76
2023/07/24 08:10:45;;;;;;;;;;;;;;;22.14;56.61;100266.00;4854319;29;124276;-75
2023/07/24 08:13:12;;;;;;;;;;;;;;;22.14;56.54;100260.63;4852492;29;119700;-75
2023/07/24 08:15:39;;;;;;;;;;;;;;;22.16;56.53;100272.09;4851241;28;119256;-75
2023/07/24 08:18:06;;;;;;;;;;;;;;;22.15;56.55;100267.69;4847235;29;124193;-75
2023/07/24 08:20:37;;;;;;;;;;;;;;;22.13;56.43;100258.91;4850425;28;123778;-75
2023/07/24 08:23:04;;;;;;;;;;;;;;;22.17;56.60;100271.09;4856184;28;120809;-76
2023/07/24 08:25:31;;;;;;;;;;;;;;;22.24;56.78;100274.84;4854704;29;118682;-75
2023/07/24 08:27:58;;;;;;;;;;;;;;;22.33;56.99;100276.59;4850310;29;125153;-75
2023/07/24 08:30:28;;;;;;;;;;;;;;;22.44;57.00;100269.25;4846090;28;124497;-75
2023/07/24 08:32:56;;;;;;;;;;;;;;;22.51;56.98;100264.94;4855299;29;119102;-75
2023/07/24 08:35:24;;;;;;;;;;;;;;;22.60;56.86;100273.88;4854068;28;118935;-74
2023/07/24 08:37:51;;;;;;;;;;;;;;;22.63;56.78;100277.13;4846974;28;124306;-75
2023/07/24 08:40:18;;;;;;;;;;;;;;;22.68;56.67;100269.38;4856454;28;124001;-75
2023/07/24 08:42:48;;;;;;;;;;;;;;;22.74;56.88;100273.28;4846103;28;120510;-75
2023/07/24 08:45:15;;;;;;;;;;;;;;;22.79;56.75;100261.97;4853634;29;119644;-75
2023/07/24 08:47:46;;;;;;;;;;;;;;;22.81;56.66;100258.13;4853681;29;124336;-75
2023/07/24 08:50:15;;;;;;;;;;;;;;;22.88;56.67;100259.16;4855279;28;124167;-74
2023/07/24 08:52:44;;;;;;;;;;;;;;;22.97;56.88;100261.91;4856297;28;120065;-75
2023/07/24 08:55:12;;;;;;;;;;;;;;;23.07;56.85;100262.63;4857520;28;118908;-75
2023/07/24 08:57:39;;;;;;;;;;;;;;;23.15;56.81;100267.19;4849950;29;125409;-74
2023/07/24 09:00:06;;;;;;;;;;;;;;;23.17;56.68;100251.66;4853105;28;123019;-75
2023/07/24 09:02:34;;;;;;;;;;;;;;;23.17;56.39;100252.53;4852960;29;119543;-75
2023/07/24 09:05:03;;;;;;;;;;;;;;;23.17;56.46;100248.97;4853350;29;119060;-75
2023/07/24 09:07:30;;;;;;;;;;;;;;;23.22;56.54;100254.72;4862440;28;124560;-75
2023/07/24 09:09:57;;;;;;;;;;;;;;;23.26;56.47;100256.06;4845380;29;123763;-75
2023/07/24 09:12:24;;;;;;;;;;;;;;;23.30;56.64;100246.63;4848415;28;119932;-74
2023/07/24 09:15:04;;;;;;;;;;;;;;;23.34;56.37;100248.00;4853491;29;118412;-75
2023/07/24 09:17:33;;;;;;;;;;;;;;;23.33;56.31;100251.69;4854178;28;123514;-76
2023/07/24 09:20:02;;;;;;;;;;;;;;;23.32;56.30;100244.63;4849709;28;124618;-75
2023/07/24 09:22:29;;;;;;;;;;;;;;;23.30;56.18;100242.09;4849480;28;120746;-75
2023/07/24 09:24:57;;;;;;;;;;;;;;;23.32;56.37;100239.22;4851653;29;118626;-76
2023/07/24 09:27:26;;;;;;;;;;;;;;;23.35;56.27;100230.75;4852599;28;125077;-75
2023/07/24 09:29:55;;;;;;;;;;;;;;;23.40;56.34;100231.09;4854887;28;125055;-75
2023/07/24 09:32:22;;;;;;;;;;;;;;;23.48;56.37;100223.00;4854046;29;119395;-75
2023/07/24 09:34:56;;;;;;;;;;;;;;;23.59;56.56;100218.28;4851904;29;119589;-75
2023/07/24 09:37:23;;;;;;;;;;;;;;;23.69;56.40;100218.94;4848163;29;124355;-75
2023/07/24 09:39:51;;;;;;;;;;;;;;;23.79;56.59;100203.44;4854383;28;123649;-75
2023/07/24 09:42:30;;;;;;;;;;;;;;;23.90;56.54;100211.19;4859340;28;119304;-76
2023/07/24 09:44:57;;;;;;;;;;;;;;;24.06;56.59;100198.63;4847802;28;118267;-75
2023/07/24 09:47:26;;;;;;;;;;;;;;;24.21;56.49;100202.31;4852794;28;124208;-75
2023/07/24 09:50:13;;;;;;;;;;;;;;;24.38;56.42;100196.84;4852884;28;124904;-75
2023/07/24 09:52:41;;;;;;;;;;;;;;;24.48;56.25;100175.81;4852914;29;119469;-75
2023/07/24 09:55:19;;;;;;;;;;;;;;;24.56;56.08;100170.38;4850534;29;119088;-75
2023/07/24 09:57:46;;;;;;;;;;;;;;;24.58;55.94;100181.91;4844356;29;124282;-75
2023/07/24 10:00:14;;;;;;;;;;;;;;;24.58;55.93;100165.66;4853274;28;123536;-75
2023/07/24 10:02:41;;;;;;;;;;;;;;;24.57;55.56;100169.38;4853647;29;119624;-75
2023/07/24 10:05:09;;;;;;;;;;;;;;;24.57;55.88;100161.25;4854112;29;119217;-75
2023/07/24 10:07:36;;;;;;;;;;;;;;;24.55;55.73;100160.59;4852014;28;124434;-75
2023/07/24 10:10:04;;;;;;;;;;;;;;;24.51;55.70;100153.81;4852076;28;124132;-74
2023/07/24 10:12:32;;;;;;;;;;;;;;;24.47;55.43;100168.72;4844208;29;120216;-75
2023/07/24 10:15:01;;;;;;;;;;;;;;;24.43;55.44;100167.38;4848751;29;118254;-75
2023/07/24 10:17:35;;;;;;;;;;;;;;;24.40;55.67;100154.22;4841891;29;124875;-75
2023/07/24 10:20:03;;;;;;;;;;;;;;;24.38;55.70;100167.09;4853116;28;123965;-75
2023/07/24 10:22:31;;;;;;;;;;;;;;;24.36;55.73;100182.66;4852521;28;120497;-75
2023/07/24 10:24:58;;;;;;;;;;;;;;;24.36;55.74;100179.94;4849761;29;120060;-75
2023/07/24 10:27:25;;;;;;;;;;;;;;;24.35;55.43;100172.84;4845322;29;124288;-75
2023/07/24 10:30:02;;;;;;;;;;;;;;;24.30;55.46;100178.78;4852422;29;124243;-75
2023/07/24 10:32:50;;;;;;;;;;;;;;;24.22;55.57;100198.59;4852093;29;120126;-75
2023/07/24 10:35:22;;;;;;;;;;;;;;;24.13;55.41;100194.22;4842478;29;120072;-76
2023/07/24 10:37:59;;;;;;;;;;;;;;;24.02;55.45;100198.13;4846256;29;124185;-75
2023/07/24 10:40:26;;;;;;;;;;;;;;;23.93;55.42;100203.75;4848068;28;123990;-75
2023/07/24 10:43:06;;;;;;;;;;;;;;;23.83;55.23;100204.78;4852087;28;120036;-74
2023/07/24 10:45:42;;;;;;;;;;;;;;;23.75;55.45;100207.44;4843368;28;118420;-75
2023/07/24 10:48:11;;;;;;;;;;;;;;;23.66;55.46;100205.78;4845262;28;123966;-74
2023/07/24 10:50:39;;;;;;;;;;;;;;;23.60;55.48;100203.72;4852948;29;124185;-75
2023/07/24 10:53:07;;;;;;;;;;;;;;;23.55;55.54;100214.22;4844669;29;119276;-74
2023/07/24 10:55:34;;;;;;;;;;;;;;;23.48;55.58;100211.34;4848743;29;117948;-74
2023/07/24 10:58:02;;;;;;;;;;;;;;;23.45;55.72;100211.66;4854372;28;124450;-74
2023/07/24 11:00:29;;;;;;;;;;;;;;;23.43;55.74;100222.69;4846350;28;124334;-75
2023/07/24 11:02:56;;;;;;;;;;;;;;;23.42;55.73;100223.69;4853218;28;119644;-75
2023/07/24 11:05:23;;;;;;;;;;;;;;;23.42;55.59;100218.28;4851394;28;118723;-75
2023/07/24 11:07:50;;;;;;;;;;;;;;;23.42;55.68;100218.28;4850955;29;124535;-74
2023/07/24 11:10:19;;;;;;;;;;;;;;;23.43;55.56;100219.09;4851188;29;124380;-74
2023/07/24 11:12:48;;;;;;;;;;;;;;;23.46;55.90;100219.63;4849606;29;119879;-75
2023/07/24 11:15:15;;;;;;;;;;;;;;;23.49;55.83;100213.88;4848966;29;119921;-74
2023/07/24 11:17:42;;;;;;;;;;;;;;;23.56;55.82;100213.19;4853641;28;124178;-75
2023/07/24 11:20:13;;;;;;;;;;;;;;;23.63;55.89;100208.81;4853764;28;124157;-75
2023/07/24 11:22:41;;;;;;;;;;;;;;;23.69;55.81;100208.13;4839346;29;119647;-75
2023/07/24 11:25:11;;;;;;;;;;;;;;;23.75;55.83;100207.44;4851810;29;119551;-74
2023/07/24 11:27:41;;;;;;;;;;;;;;;23.83;55.86;100199.38;4853065;28;123081;-75
2023/07/24 11:30:09;;;;;;;;;;;;;;;23.89;55.71;100193.25;4852372;29;124083;-75
2023/07/24 11:32:38;;;;;;;;;;;;;;;23.98;55.79;100185.13;4851560;29;120375;-75
2023/07/24 11:35:05;;;;;;;;;;;;;;;24.04;55.87;100189.84;4848839;29;119281;-75
2023/07/24 11:37:34;;;;;;;;;;;;;;;24.12;55.70;100184.41;4843269;29;125027;-75
2023/07/24 11:40:04;;;;;;;;;;;;;;;24.19;55.60;100188.13;4851259;28;125675;-75
2023/07/24 11:42:31;;;;;;;;;;;;;;;24.24;55.83;100191.16;4845455;28;119500;-75
2023/07/24 11:45:00;;;;;;;;;;;;;;;24.33;55.85;100193.81;4851290;28;118936;-75
2023/07/24 11:47:29;;;;;;;;;;;;;;;24.40;55.56;100189.41;4853867;29;125138;-74
2023/07/24 11:50:00;;;;;;;;;;;;;;;24.47;55.85;100179.56;4850766;28;124246;-74
2023/07/24 11:52:47;;;;;;;;;;;;;;;24.55;55.56;100193.09;4845766;28;119629;-74
2023/07/24 11:55:16;;;;;;;;;;;;;;;24.58;55.71;100192.75;4854250;28;120516;-75
2023/07/24 11:58:04;;;;;;;;;;;;;;;24.63;55.61;100190.31;4849920;28;124174;-75
2023/07/24 12:00:32;;;;;;;;;;;;;;;24.65;55.30;100187.44;4853740;28;124837;-76
2023/07/24 12:03:04;;;;;;;;;;;;;;;24.64;55.42;100183.91;4850384;28;121031;-75
2023/07/24 12:05:39;;;;;;;;;;;;;;;24.67;55.35;100185.41;4854637;28;119673;-75
2023/07/24 12:08:07;;;;;;;;;;;;;;;24.72;55.64;100187.59;4856057;29;124129;-75
2023/07/24 12:10:36;;;;;;;;;;;;;;;24.74;55.28;100185.56;4856001;28;124209;-75
2023/07/24 12:13:07;;;;;;;;;;;;;;;24.77;55.51;100174.34;4844342;28;119419;-75
2023/07/24 12:15:35;;;;;;;;;;;;;;;24.81;55.38;100175.69;4854171;28;119081;-75
2023/07/24 12:18:02;;;;;;;;;;;;;;;24.84;55.43;100159.06;4854268;29;124466;-75
2023/07/24 12:20:31;;;;;;;;;;;;;;;24.88;55.41;100176.66;4854604;28;123253;-75
2023/07/24 12:22:58;;;;;;;;;;;;;;;24.93;55.17;100184.25;4850885;29;120432;-75
2023/07/24 12:25:26;;;;;;;;;;;;;;;24.93;55.09;100168.84;4846627;28;118695;-75
2023/07/24 12:27:53;;;;;;;;;;;;;;;24.96;55.33;100167.63;4854126;29;124341;-75
2023/07/24 12:30:19;;;;;;;;;;;;;;;24.97;55.18;100170.16;4852021;28;123726;-75
2023/07/24 12:32:47;;;;;;;;;;;;;;;25.02;55.17;100173.19;4848594;28;120196;-75